createdAt,value
2023-04-25T00:04:54.199Z,37.10
2023-04-25T00:09:55.744Z,37.00
2023-04-25T00:14:57.155Z,37.00
2023-04-25T00:19:58.840Z,37.00
2023-04-25T00:25:00.310Z,37.00
2023-04-25T00:30:01.736Z,37.00
2023-04-25T00:35:03.145Z,37.10
2023-04-25T00:40:04.544Z,37.10
2023-04-25T00:45:05.955Z,37.20
2023-04-25T00:50:07.379Z,37.10
2023-04-25T00:55:08.761Z,37.10
2023-04-25T01:00:10.149Z,37.00
2023-04-25T01:05:11.536Z,37.00
2023-04-25T01:10:12.935Z,37.00
2023-04-25T01:15:14.385Z,37.00
2023-04-25T01:20:15.782Z,37.00
2023-04-25T01:25:17.178Z,37.00
2023-04-25T01:30:18.573Z,37.00
2023-04-25T01:35:19.969Z,37.00
2023-04-25T01:40:21.356Z,37.00
2023-04-25T01:45:22.745Z,37.00
2023-04-25T01:50:24.164Z,37.00
2023-04-25T01:55:25.561Z,37.00
2023-04-25T02:00:27.124Z,37.00
2023-04-25T02:05:28.503Z,37.60
2023-04-25T02:10:29.993Z,37.00
2023-04-25T02:15:31.409Z,37.00
2023-04-25T02:20:32.827Z,36.90
2023-04-25T02:25:34.233Z,36.90
2023-04-25T02:30:35.647Z,36.90
2023-04-25T02:35:37.037Z,36.90
2023-04-25T02:40:38.420Z,36.90
2023-04-25T02:45:39.808Z,36.90
2023-04-25T02:50:41.202Z,36.90
2023-04-25T02:55:42.640Z,37.40
2023-04-25T03:00:44.082Z,36.90
2023-04-25T03:05:45.528Z,37.00
2023-04-25T03:10:46.950Z,37.00
2023-04-25T03:15:48.355Z,37.00
2023-04-25T03:20:49.815Z,36.90
2023-04-25T03:25:51.236Z,37.00
2023-04-25T03:30:52.684Z,36.80
2023-04-25T03:35:54.106Z,36.90
2023-04-25T03:40:55.499Z,36.90
2023-04-25T03:45:56.954Z,36.80
2023-04-25T03:50:58.348Z,36.80
2023-04-25T03:55:59.744Z,36.80
2023-04-25T04:01:01.120Z,36.80
2023-04-25T04:06:02.517Z,36.80
2023-04-25T04:11:04.104Z,36.80
2023-04-25T04:16:05.610Z,36.90
2023-04-25T04:21:07.033Z,36.90
2023-04-25T04:26:08.442Z,36.90
2023-04-25T04:31:09.866Z,37.40
2023-04-25T04:36:11.316Z,36.80
2023-04-25T04:41:12.770Z,36.80
2023-04-25T04:46:14.268Z,36.80
2023-04-25T04:51:15.796Z,36.70
2023-04-25T04:56:17.312Z,36.70
2023-04-25T05:01:18.764Z,36.60
2023-04-25T05:06:20.260Z,36.60
2023-04-25T05:11:21.767Z,36.60
2023-04-25T05:16:24.103Z,36.60
2023-04-25T05:21:25.534Z,36.60
2023-04-25T05:26:26.936Z,36.70
2023-04-25T05:31:28.339Z,36.80
2023-04-25T05:36:29.756Z,36.80
2023-04-25T05:41:31.172Z,36.80
2023-04-25T05:46:32.751Z,36.80
2023-04-25T05:51:34.377Z,36.80
2023-04-25T05:56:35.823Z,36.70
2023-04-25T06:01:37.324Z,36.70
2023-04-25T06:06:38.773Z,36.60
2023-04-25T06:11:40.312Z,36.60
2023-04-25T06:16:41.695Z,36.60
2023-04-25T06:21:43.150Z,36.60
2023-04-25T06:26:44.553Z,36.60
2023-04-25T06:31:46.046Z,36.60
2023-04-25T06:36:47.485Z,36.60
2023-04-25T06:41:48.908Z,36.60
2023-04-25T06:46:50.360Z,36.60
2023-04-25T06:51:51.774Z,36.60
2023-04-25T06:56:53.178Z,36.70
2023-04-25T07:01:54.566Z,36.60
2023-04-25T07:06:56.095Z,36.60
2023-04-25T07:11:57.720Z,36.60
2023-04-25T07:16:59.216Z,36.50
2023-04-25T07:22:00.740Z,36.50
2023-04-25T07:27:02.160Z,36.50
2023-04-25T07:32:03.692Z,36.50
2023-04-25T07:37:05.194Z,36.50
2023-04-25T07:42:06.614Z,36.50
2023-04-25T07:47:08.038Z,36.50
2023-04-25T07:52:09.424Z,36.40
2023-04-25T07:57:10.858Z,36.50
2023-04-25T08:02:12.325Z,36.50
2023-04-25T08:07:13.784Z,36.50
2023-04-25T08:12:15.189Z,36.50
2023-04-25T08:17:16.581Z,36.50
2023-04-25T08:22:17.971Z,37.10
2023-04-25T08:27:19.989Z,36.40
2023-04-25T08:32:21.500Z,36.40
2023-04-25T08:37:22.944Z,36.40
2023-04-25T08:42:29.225Z,36.40
2023-04-25T08:47:30.659Z,36.20
2023-04-25T08:52:32.142Z,36.30
2023-04-25T08:57:33.587Z,36.30
2023-04-25T09:02:35.082Z,36.20
2023-04-25T09:07:36.557Z,36.30
2023-04-25T09:12:37.990Z,36.30
2023-04-25T09:17:39.616Z,36.30
2023-04-25T09:22:41.030Z,36.30
2023-04-25T09:27:42.548Z,36.40
2023-04-25T09:32:43.970Z,36.30
2023-04-25T09:37:45.381Z,36.30
2023-04-25T09:42:46.766Z,36.20
2023-04-25T09:47:48.181Z,36.10
2023-04-25T09:52:49.629Z,36.10
2023-04-25T09:57:51.098Z,36.10
2023-04-25T10:02:52.620Z,36.10
2023-04-25T10:07:54.101Z,36.20
2023-04-25T10:12:55.489Z,36.20
2023-04-25T10:17:56.916Z,36.10
2023-04-25T10:22:58.312Z,36.10
2023-04-25T10:27:59.726Z,36.20
2023-04-25T10:33:01.131Z,36.20
2023-04-25T10:38:02.513Z,36.20
2023-04-25T10:43:03.889Z,36.20
2023-04-25T10:48:05.330Z,36.10
2023-04-25T10:53:06.754Z,36.10
2023-04-25T10:58:08.152Z,36.10
2023-04-25T11:03:09.711Z,36.10
2023-04-25T11:08:11.224Z,36.10
2023-04-25T11:13:12.712Z,36.00
2023-04-25T11:18:14.281Z,35.80
2023-04-25T11:23:15.743Z,35.80
2023-04-25T11:28:17.191Z,35.80
2023-04-25T11:33:18.683Z,35.70
2023-04-25T11:38:20.987Z,35.70
2023-04-25T11:43:23.914Z,35.80
2023-04-25T11:51:17.456Z,35.80
2023-04-25T11:53:46.764Z,35.90
2023-04-25T11:58:48.149Z,35.80
2023-04-25T12:03:49.714Z,35.90
2023-04-25T12:08:51.574Z,35.90
2023-04-25T12:13:53.128Z,35.80
2023-04-25T12:18:54.529Z,35.90
2023-04-25T12:23:55.933Z,35.90
2023-04-25T12:28:57.326Z,35.80
2023-04-25T12:33:58.763Z,35.90
2023-04-25T12:39:00.289Z,35.90
2023-04-25T12:44:01.689Z,35.90
2023-04-25T12:49:17.275Z,36.00
2023-04-25T12:54:19.913Z,36.00
2023-04-25T12:59:21.316Z,36.00
2023-04-25T13:04:22.847Z,36.00
2023-04-25T13:09:24.365Z,36.00
2023-04-25T13:14:25.860Z,36.00
2023-04-25T13:19:27.262Z,35.90
2023-04-25T13:24:28.655Z,36.00
2023-04-25T13:29:30.042Z,35.80
2023-04-25T13:34:31.466Z,35.70
2023-04-25T13:39:32.914Z,35.60
2023-04-25T13:44:34.344Z,35.60
2023-04-25T13:49:35.834Z,35.60
2023-04-25T13:54:37.311Z,35.60
2023-04-25T13:59:38.693Z,35.50
2023-04-25T14:04:40.134Z,35.70
2023-04-25T14:09:41.599Z,36.30
2023-04-25T14:14:42.995Z,35.70
2023-04-25T14:19:44.436Z,35.80
2023-04-25T14:24:45.827Z,35.80
2023-04-25T14:29:47.229Z,35.70
2023-04-25T14:34:48.665Z,35.80
2023-04-25T14:39:50.076Z,36.30
2023-04-25T14:44:51.470Z,35.70
2023-04-25T14:49:52.860Z,35.60
2023-04-25T14:54:54.256Z,35.70
2023-04-25T14:59:55.654Z,35.70
2023-04-25T15:04:57.299Z,35.60
2023-04-25T15:09:58.830Z,35.60
2023-04-25T15:15:00.235Z,35.60
2023-04-25T15:20:01.891Z,35.50
2023-04-25T15:25:03.359Z,35.60
2023-04-25T15:30:04.783Z,35.40
2023-04-25T15:35:06.191Z,35.40
2023-04-25T15:40:07.593Z,35.60
2023-04-25T15:45:08.994Z,35.50
2023-04-25T15:50:10.388Z,35.50
2023-04-25T15:55:11.811Z,35.50
2023-04-25T16:00:13.464Z,35.40
2023-04-25T16:05:15.104Z,36.00
2023-04-25T16:10:16.611Z,35.40
2023-04-25T16:15:18.038Z,35.40
2023-04-25T16:20:19.431Z,35.40
2023-04-25T16:25:20.833Z,35.30
2023-04-25T16:30:22.225Z,35.40
2023-04-25T16:35:23.617Z,35.30
2023-04-25T16:40:25.015Z,35.30
2023-04-25T16:45:26.409Z,35.30
2023-04-25T16:50:27.872Z,35.40
2023-04-25T16:55:29.397Z,35.40
2023-04-25T17:00:30.821Z,35.40
2023-04-25T17:05:32.388Z,35.30
2023-04-25T17:10:33.852Z,35.40
2023-04-25T17:15:35.253Z,35.30
2023-04-25T17:20:36.679Z,35.30
2023-04-25T17:25:38.087Z,35.30
2023-04-25T17:30:39.524Z,35.30
2023-04-25T17:35:40.994Z,35.20
2023-04-25T17:40:42.424Z,35.40
2023-04-25T17:45:43.835Z,35.50
2023-04-25T17:50:45.270Z,35.30
2023-04-25T17:55:46.667Z,35.20
2023-04-25T18:00:48.078Z,34.70
2023-04-25T18:05:49.512Z,34.20
2023-04-25T18:10:51.029Z,33.80
2023-04-25T18:15:52.528Z,33.70
2023-04-25T18:20:53.958Z,33.40
2023-04-25T18:25:55.356Z,33.50
2023-04-25T18:30:56.782Z,33.50
2023-04-25T18:35:59.586Z,34.10
2023-04-25T18:41:18.265Z,34.10
2023-04-25T18:46:22.563Z,33.50
2023-04-25T18:51:24.100Z,33.50
2023-04-25T18:56:25.510Z,32.80
2023-04-25T19:01:27.050Z,32.90
2023-04-25T19:06:28.574Z,32.90
2023-04-25T19:11:29.971Z,33.30
2023-04-25T19:16:31.409Z,33.40
2023-04-25T19:21:32.834Z,33.20
2023-04-25T19:26:34.363Z,33.00
2023-04-25T19:31:35.905Z,33.00
2023-04-25T19:36:37.309Z,32.80
2023-04-25T19:41:38.972Z,32.90
2023-04-25T19:46:40.499Z,32.90
2023-04-25T19:51:41.954Z,32.80
2023-04-25T19:56:43.346Z,32.60
2023-04-25T20:01:44.853Z,32.40
2023-04-25T20:06:46.407Z,32.20
2023-04-25T20:11:47.850Z,32.20
2023-04-25T20:16:49.351Z,32.10
2023-04-25T20:21:50.789Z,32.00
2023-04-25T20:26:52.188Z,32.10
2023-04-25T20:31:53.632Z,32.10
2023-04-25T20:36:55.198Z,32.10
2023-04-25T20:41:56.634Z,32.10
2023-04-25T20:46:58.025Z,32.30
2023-04-25T20:51:59.419Z,32.30
2023-04-25T20:57:00.860Z,32.40
2023-04-25T21:02:02.262Z,32.30
2023-04-25T21:07:03.713Z,32.20
2023-04-25T21:12:05.097Z,32.20
2023-04-25T21:17:06.564Z,32.10
2023-04-25T21:22:07.970Z,32.00
2023-04-25T21:27:09.370Z,31.80
2023-04-25T21:32:10.772Z,32.00
2023-04-25T21:37:12.207Z,32.00
2023-04-25T21:42:13.618Z,32.10
2023-04-25T21:47:15.046Z,32.10
2023-04-25T21:52:16.489Z,32.00
2023-04-25T21:57:17.912Z,32.10
2023-04-25T22:02:19.547Z,32.10
2023-04-25T22:07:21.135Z,32.20
2023-04-25T22:12:22.635Z,32.10
2023-04-25T22:17:24.190Z,32.10
2023-04-25T22:22:25.623Z,32.10
2023-04-25T22:27:27.008Z,32.20
2023-04-25T22:32:28.430Z,32.10
2023-04-25T22:37:30.966Z,32.20
2023-04-25T22:42:32.368Z,32.00
2023-04-25T22:47:33.796Z,32.10
2023-04-25T22:52:35.196Z,32.30
2023-04-25T22:57:36.589Z,32.50
2023-04-25T23:02:38.131Z,32.60
2023-04-25T23:07:39.748Z,32.80
2023-04-25T23:12:41.211Z,32.90
2023-04-25T23:17:42.698Z,33.00
2023-04-25T23:22:44.142Z,33.10
2023-04-25T23:27:45.595Z,33.10
2023-04-25T23:32:47.085Z,33.20
2023-04-25T23:37:48.511Z,33.30
2023-04-25T23:42:49.925Z,33.30
2023-04-25T23:47:51.351Z,33.30
2023-04-25T23:52:52.806Z,33.40
2023-04-25T23:57:54.202Z,33.40
